Time;durP1;ratioP1;P1;durP2;ratioP2;P2;SDS_P1;SDS_P2;PMS_P1;PMS_P2;Temp;Humidity;BMP_temperature;BMP_pressure;BME280_temperature;BME280_humidity;BME280_pressure;Samples;Min_cycle;Max_cycle;Signal;HPM_P1;HPM_P2
2022/07/15 00:02:11;;;;;;;7.82;3.70;;;;;;;;;;4829363;29;20402;-73
2022/07/15 00:04:43;;;;;;;7.35;2.63;;;;;;;;;;4841364;29;20056;-72
2022/07/15 00:07:13;;;;;;;11.80;3.05;;;;;;;;;;4837621;29;20057;-72
2022/07/15 00:12:32;;;;;;;9.80;2.70;;;;;;;;;;4801533;29;20139;-71
2022/07/15 00:15:03;;;;;;;8.13;3.10;;;;;;;;;;4752145;29;20473;-73
2022/07/15 00:17:34;;;;;;;7.07;3.03;;;;;;;;;;4765778;30;20090;-71
2022/07/15 00:20:06;;;;;;;6.88;2.53;;;;;;;;;;4762536;30;20066;-72
2022/07/15 00:22:38;;;;;;;7.13;2.72;;;;;;;;;;4783783;30;20074;-72
2022/07/15 00:25:10;;;;;;;8.20;2.50;;;;;;;;;;4783266;30;20512;-72
2022/07/15 00:28:01;;;;;;;7.80;3.00;;;;;;;;;;4783488;30;20063;-72
2022/07/15 00:30:37;;;;;;;6.90;2.50;;;;;;;;;;4819587;29;20170;-73
2022/07/15 00:33:09;;;;;;;6.82;2.40;;;;;;;;;;4804067;29;20063;-72
2022/07/15 00:35:40;;;;;;;7.40;2.60;;;;;;;;;;4771873;29;20423;-72
2022/07/15 00:38:11;;;;;;;5.00;2.15;;;;;;;;;;4819562;29;20073;-67
2022/07/15 00:40:46;;;;;;;7.93;2.25;;;;;;;;;;4799086;29;20066;-72
2022/07/15 00:43:18;;;;;;;8.25;2.53;;;;;;;;;;4768176;30;20066;-71
2022/07/15 00:45:49;;;;;;;9.80;2.40;;;;;;;;;;4770922;30;20064;-71
2022/07/15 00:48:19;;;;;;;5.03;2.13;;;;;;;;;;4783233;30;20164;-71
2022/07/15 00:50:50;;;;;;;7.50;2.72;;;;;;;;;;4783625;30;20062;-71
2022/07/15 00:53:22;;;;;;;4.45;2.15;;;;;;;;;;4783370;30;20056;-71
2022/07/15 00:55:56;;;;;;;5.40;2.63;;;;;;;;;;4797933;29;20074;-72
2022/07/15 00:58:29;;;;;;;4.75;2.22;;;;;;;;;;4783209;30;20063;-72
2022/07/15 01:01:01;;;;;;;5.53;2.25;;;;;;;;;;4785788;29;20054;-71
2022/07/15 01:03:33;;;;;;;7.35;2.47;;;;;;;;;;4787105;29;20055;-73
2022/07/15 01:06:03;;;;;;;6.03;2.08;;;;;;;;;;4804327;29;20070;-73
2022/07/15 01:08:33;;;;;;;7.00;2.15;;;;;;;;;;4736512;30;20469;-72
2022/07/15 01:11:05;;;;;;;6.22;1.90;;;;;;;;;;4768561;30;20064;-73
2022/07/15 01:13:36;;;;;;;4.55;1.83;;;;;;;;;;4804981;29;20678;-73
2022/07/15 01:16:07;;;;;;;6.65;1.63;;;;;;;;;;4804283;29;20139;-72
2022/07/15 01:18:38;;;;;;;8.38;1.75;;;;;;;;;;4814642;29;20562;-72
2022/07/15 01:21:09;;;;;;;;;;;;;;;;;;4808475;29;20635;-72
2022/07/15 01:23:42;;;;;;;11.32;2.00;;;;;;;;;;4821856;29;19936;-72
2022/07/15 01:26:32;;;;;;;5.55;2.20;;;;;;;;;;4810013;29;20066;-71
2022/07/15 01:29:03;;;;;;;6.05;2.00;;;;;;;;;;4822223;29;20051;-71
2022/07/15 01:31:33;;;;;;;5.97;1.58;;;;;;;;;;4813371;29;20063;-71
2022/07/15 01:34:04;;;;;;;6.70;1.65;;;;;;;;;;4786160;30;20063;-70
2022/07/15 01:36:36;;;;;;;6.03;1.88;;;;;;;;;;4786179;30;20059;-71
2022/07/15 01:39:07;;;;;;;5.80;1.77;;;;;;;;;;4803590;29;20058;-70
2022/07/15 01:41:59;;;;;;;3.63;1.50;;;;;;;;;;4803784;29;20102;-71
2022/07/15 01:44:29;;;;;;;4.13;1.85;;;;;;;;;;4785323;29;20062;-70
2022/07/15 01:47:00;;;;;;;7.10;1.63;;;;;;;;;;4785550;29;20070;-71
2022/07/15 01:49:33;;;;;;;3.63;1.90;;;;;;;;;;4800440;29;20059;-71
2022/07/15 01:52:12;;;;;;;4.50;1.80;;;;;;;;;;4786239;29;20059;-71
2022/07/15 01:54:46;;;;;;;7.07;1.88;;;;;;;;;;4762835;30;20056;-71
2022/07/15 01:57:17;;;;;;;5.65;2.03;;;;;;;;;;4819586;29;20058;-70
2022/07/15 01:59:56;;;;;;;6.00;1.60;;;;;;;;;;4820761;29;20065;-71
2022/07/15 02:02:44;;;;;;;3.70;1.77;;;;;;;;;;4822087;29;20062;-70
2022/07/15 02:05:18;;;;;;;4.55;1.85;;;;;;;;;;4803163;29;20058;-70
2022/07/15 02:07:51;;;;;;;8.07;2.00;;;;;;;;;;4758989;29;20516;-70
2022/07/15 02:10:23;;;;;;;5.30;2.45;;;;;;;;;;4820814;29;20069;-68
2022/07/15 02:12:54;;;;;;;5.50;2.35;;;;;;;;;;4821081;29;20412;-70
2022/07/15 02:15:28;;;;;;;3.88;1.98;;;;;;;;;;4783877;29;20417;-70
2022/07/15 02:18:04;;;;;;;4.07;1.77;;;;;;;;;;4766822;30;20078;-70
2022/07/15 02:20:35;;;;;;;4.68;1.88;;;;;;;;;;4751543;30;20064;-70
2022/07/15 02:23:06;;;;;;;4.32;1.90;;;;;;;;;;4751227;30;20060;-71
2022/07/15 02:25:37;;;;;;;4.75;1.70;;;;;;;;;;4781399;29;20056;-70
2022/07/15 02:28:09;;;;;;;5.93;1.83;;;;;;;;;;4765868;30;20060;-71
2022/07/15 02:30:42;;;;;;;5.30;2.17;;;;;;;;;;4732043;30;20399;-70
2022/07/15 02:33:13;;;;;;;5.60;1.90;;;;;;;;;;4769601;29;20062;-70
2022/07/15 02:35:44;;;;;;;5.22;2.30;;;;;;;;;;4755621;30;20064;-71
2022/07/15 02:38:15;;;;;;;6.72;2.47;;;;;;;;;;4749058;30;20067;-70
2022/07/15 02:40:45;;;;;;;6.63;2.70;;;;;;;;;;4749200;30;20068;-69
2022/07/15 02:43:16;;;;;;;4.35;1.85;;;;;;;;;;4773217;29;20055;-70
2022/07/15 02:45:47;;;;;;;4.68;1.80;;;;;;;;;;4764526;29;20051;-70
2022/07/15 02:48:19;;;;;;;6.93;2.30;;;;;;;;;;4780146;29;20047;-70
2022/07/15 02:50:51;;;;;;;4.88;1.90;;;;;;;;;;4781074;29;20202;-70
2022/07/15 02:53:28;;;;;;;6.45;2.38;;;;;;;;;;4813579;29;20431;-70
2022/07/15 02:56:04;;;;;;;4.10;1.70;;;;;;;;;;4808910;29;20055;-70
2022/07/15 02:58:35;;;;;;;6.53;2.17;;;;;;;;;;4802466;29;20063;-71
2022/07/15 03:01:05;;;;;;;4.57;1.80;;;;;;;;;;4820241;29;20063;-69
2022/07/15 03:03:35;;;;;;;5.68;2.03;;;;;;;;;;4813475;29;20416;-70
2022/07/15 03:06:07;;;;;;;3.70;1.80;;;;;;;;;;4754744;30;20055;-70
2022/07/15 03:08:38;;;;;;;4.47;1.88;;;;;;;;;;4751093;30;20059;-70
2022/07/15 03:11:08;;;;;;;4.53;2.05;;;;;;;;;;4762535;29;20098;-70
2022/07/15 03:13:39;;;;;;;3.70;1.75;;;;;;;;;;4783865;29;20063;-70
2022/07/15 03:16:10;;;;;;;4.45;1.88;;;;;;;;;;4766076;30;20059;-69
2022/07/15 03:18:45;;;;;;;6.10;2.00;;;;;;;;;;4766153;30;20179;-70
2022/07/15 03:21:17;;;;;;;5.07;1.80;;;;;;;;;;4761370;29;20180;-69
2022/07/15 03:23:49;;;;;;;6.03;2.35;;;;;;;;;;4697347;30;20068;-70
2022/07/15 03:26:20;;;;;;;4.75;2.15;;;;;;;;;;4747860;30;20056;-68
2022/07/15 03:28:52;;;;;;;5.38;2.05;;;;;;;;;;4777849;29;20055;-70
2022/07/15 03:31:22;;;;;;;4.53;2.00;;;;;;;;;;4783800;29;20608;-70
2022/07/15 03:33:55;;;;;;;4.35;2.00;;;;;;;;;;4740971;30;20052;-70
2022/07/15 03:36:27;;;;;;;6.10;2.05;;;;;;;;;;4783548;29;20148;-69
2022/07/15 03:38:58;;;;;;;4.82;1.55;;;;;;;;;;4777302;29;20055;-69
2022/07/15 03:41:29;;;;;;;3.90;2.03;;;;;;;;;;4755169;30;20056;-70
2022/07/15 03:44:01;;;;;;;9.60;2.00;;;;;;;;;;4733445;30;20052;-68
2022/07/15 03:46:31;;;;;;;5.80;2.10;;;;;;;;;;4769099;30;20505;-68
2022/07/15 03:49:04;;;;;;;3.67;1.77;;;;;;;;;;4783734;30;20086;-69
2022/07/15 03:51:34;;;;;;;3.63;2.00;;;;;;;;;;4779833;29;20052;-70
2022/07/15 03:54:06;;;;;;;7.72;2.33;;;;;;;;;;4765742;30;20064;-70
2022/07/15 03:56:37;;;;;;;5.97;1.83;;;;;;;;;;4765845;30;20056;-70
2022/07/15 03:59:08;;;;;;;5.50;1.80;;;;;;;;;;4775692;30;20060;-68
2022/07/15 04:01:38;;;;;;;5.50;2.00;;;;;;;;;;4783512;30;20059;-69
2022/07/15 04:04:09;;;;;;;5.95;2.00;;;;;;;;;;4793643;29;20059;-70
2022/07/15 04:06:40;;;;;;;5.32;2.03;;;;;;;;;;4799998;29;20063;-70
2022/07/15 04:09:11;;;;;;;4.97;2.00;;;;;;;;;;4783426;30;20066;-69
2022/07/15 04:11:42;;;;;;;3.90;1.95;;;;;;;;;;4783500;30;20067;-69
2022/07/15 04:14:14;;;;;;;7.28;2.13;;;;;;;;;;4765577;30;20048;-68
2022/07/15 04:16:45;;;;;;;3.70;1.85;;;;;;;;;;4765986;30;20429;-69
2022/07/15 04:19:26;;;;;;;8.32;2.10;;;;;;;;;;4747896;30;20170;-69
2022/07/15 04:21:59;;;;;;;3.58;1.70;;;;;;;;;;4748158;30;20056;-70
2022/07/15 04:24:34;;;;;;;4.63;2.30;;;;;;;;;;4765539;30;20052;-71
2022/07/15 04:27:06;;;;;;;;;;;;;;;;;;4765823;30;20064;-68
2022/07/15 04:29:37;;;;;;;6.43;1.90;;;;;;;;;;4777333;29;19925;-71
2022/07/15 04:32:08;;;;;;;4.82;2.03;;;;;;;;;;4765518;30;20068;-69
2022/07/15 04:34:42;;;;;;;4.72;1.77;;;;;;;;;;4765552;30;20052;-69
2022/07/15 04:37:13;;;;;;;3.83;2.10;;;;;;;;;;4765250;30;20052;-70
2022/07/15 04:39:49;;;;;;;9.27;2.05;;;;;;;;;;4785167;29;20465;-70
2022/07/15 04:42:19;;;;;;;7.03;2.00;;;;;;;;;;4786921;29;20060;-71
2022/07/15 04:44:50;;;;;;;5.40;1.77;;;;;;;;;;4771749;30;20670;-70
2022/07/15 04:47:22;;;;;;;4.95;2.20;;;;;;;;;;4817173;29;20066;-71
2022/07/15 04:52:49;;;;;;;9.15;2.42;;;;;;;;;;4836399;29;20058;-69
2022/07/15 04:55:20;;;;;;;6.10;1.80;;;;;;;;;;4822440;29;20407;-70
2022/07/15 04:57:58;;;;;;;3.58;1.48;;;;;;;;;;4804148;29;20054;-71
2022/07/15 05:00:28;;;;;;;6.60;1.80;;;;;;;;;;4822287;29;20139;-68
2022/07/15 05:02:59;;;;;;;4.10;1.90;;;;;;;;;;4792672;29;20067;-69
2022/07/15 05:05:29;;;;;;;4.82;1.70;;;;;;;;;;4822047;29;20057;-70
2022/07/15 05:08:00;;;;;;;4.35;1.58;;;;;;;;;;4822149;29;20065;-69
2022/07/15 05:10:42;;;;;;;5.10;1.77;;;;;;;;;;4806215;29;20090;-70
2022/07/15 05:13:13;;;;;;;6.68;1.67;;;;;;;;;;4818590;29;20400;-70
2022/07/15 05:15:43;;;;;;;6.57;1.70;;;;;;;;;;4818373;29;20059;-70
2022/07/15 05:18:16;;;;;;;4.93;1.77;;;;;;;;;;4773409;29;20052;-68
2022/07/15 05:20:48;;;;;;;8.27;1.70;;;;;;;;;;4761911;30;20081;-69
2022/07/15 05:23:19;;;;;;;5.57;1.70;;;;;;;;;;4767786;30;20044;-70
2022/07/15 05:25:55;;;;;;;5.38;1.90;;;;;;;;;;4770363;30;20063;-71
2022/07/15 05:28:25;;;;;;;3.58;1.55;;;;;;;;;;4785297;29;20608;-69
2022/07/15 05:30:56;;;;;;;5.35;1.92;;;;;;;;;;4773422;29;20075;-70
2022/07/15 05:33:26;;;;;;;4.93;1.80;;;;;;;;;;4784280;29;20434;-70
2022/07/15 05:35:58;;;;;;;7.13;1.70;;;;;;;;;;4768685;29;20524;-70
2022/07/15 05:38:31;;;;;;;5.30;1.92;;;;;;;;;;4764496;30;20059;-68
2022/07/15 05:41:03;;;;;;;3.70;1.45;;;;;;;;;;4785463;30;20557;-68
2022/07/15 05:43:35;;;;;;;8.18;1.70;;;;;;;;;;4785479;30;20055;-69
2022/07/15 05:46:06;;;;;;;4.15;1.80;;;;;;;;;;4770544;30;20051;-70
2022/07/15 05:48:46;;;;;;;4.75;1.90;;;;;;;;;;4773391;30;20476;-68
2022/07/15 05:51:17;;;;;;;7.65;1.80;;;;;;;;;;4803176;29;20078;-70
2022/07/15 05:53:47;;;;;;;4.78;1.70;;;;;;;;;;4750169;30;20531;-69
2022/07/15 05:56:17;;;;;;;4.07;1.55;;;;;;;;;;4742006;30;20056;-70
2022/07/15 05:58:48;;;;;;;5.15;2.08;;;;;;;;;;4724728;30;20053;-70
2022/07/15 06:01:23;;;;;;;5.07;2.08;;;;;;;;;;4716625;30;20058;-70
2022/07/15 06:03:54;;;;;;;3.70;1.73;;;;;;;;;;4697188;30;20057;-70
2022/07/15 06:06:24;;;;;;;4.50;1.55;;;;;;;;;;4697359;30;20087;-71
2022/07/15 06:08:54;;;;;;;6.95;1.85;;;;;;;;;;4731717;30;20048;-71
2022/07/15 06:11:25;;;;;;;7.15;2.13;;;;;;;;;;4731850;30;20064;-70
2022/07/15 06:13:56;;;;;;;4.32;1.75;;;;;;;;;;4742533;30;20066;-71
2022/07/15 06:16:26;;;;;;;6.85;2.17;;;;;;;;;;4724690;30;20506;-70
2022/07/15 06:18:57;;;;;;;3.55;1.92;;;;;;;;;;4752094;30;20060;-70
2022/07/15 06:21:27;;;;;;;3.70;1.70;;;;;;;;;;4739082;30;20125;-70
2022/07/15 06:23:58;;;;;;;5.25;1.80;;;;;;;;;;4731671;30;20542;-70
2022/07/15 06:26:28;;;;;;;4.75;1.83;;;;;;;;;;4722698;30;20064;-71
2022/07/15 06:28:59;;;;;;;3.88;1.83;;;;;;;;;;4745745;30;20415;-71
2022/07/15 06:31:29;;;;;;;6.20;2.15;;;;;;;;;;4744828;30;20049;-70
2022/07/15 06:34:01;;;;;;;;;;;;;;;;;;4745002;30;20068;-71
2022/07/15 06:36:32;;;;;;;4.22;1.80;;;;;;;;;;4716960;30;19927;-70
2022/07/15 06:39:03;;;;;;;6.22;1.77;;;;;;;;;;4716990;30;20473;-70
2022/07/15 06:41:34;;;;;;;7.35;1.95;;;;;;;;;;4736903;30;20060;-70
2022/07/15 06:44:05;;;;;;;6.10;1.60;;;;;;;;;;4748753;30;20755;-70
2022/07/15 06:46:43;;;;;;;3.63;1.83;;;;;;;;;;4758287;30;20069;-70
2022/07/15 06:49:13;;;;;;;6.55;1.85;;;;;;;;;;4712066;30;20069;-71
2022/07/15 06:51:43;;;;;;;5.10;1.75;;;;;;;;;;4750270;30;20056;-71
2022/07/15 06:54:14;;;;;;;6.82;1.58;;;;;;;;;;4766761;30;20059;-70
2022/07/15 06:56:44;;;;;;;5.05;1.48;;;;;;;;;;4766828;30;20060;-69
2022/07/15 07:03:40;;;;;;;9.95;2.00;;;;;;;;;;4788634;29;20424;-70
2022/07/15 07:06:29;;;;;;;6.95;1.70;;;;;;;;;;4768128;30;20052;-71
2022/07/15 07:09:00;;;;;;;4.55;1.77;;;;;;;;;;4801818;29;20681;-69
2022/07/15 07:11:32;;;;;;;3.28;1.85;;;;;;;;;;4802278;29;20074;-70
2022/07/15 07:14:03;;;;;;;6.22;1.75;;;;;;;;;;4838564;29;20102;-70
2022/07/15 07:16:33;;;;;;;4.75;1.83;;;;;;;;;;4839019;29;20062;-71
2022/07/15 07:19:04;;;;;;;6.32;2.08;;;;;;;;;;4846692;29;20065;-71
2022/07/15 07:21:35;;;;;;;5.13;2.25;;;;;;;;;;4838604;29;20065;-68
2022/07/15 07:24:07;;;;;;;5.60;1.60;;;;;;;;;;4838559;29;20061;-70
2022/07/15 07:26:37;;;;;;;6.32;1.90;;;;;;;;;;4838418;29;20439;-69
2022/07/15 07:29:07;;;;;;;6.50;1.52;;;;;;;;;;4845434;29;20049;-70
2022/07/15 07:31:38;;;;;;;4.55;1.63;;;;;;;;;;4841516;29;20098;-70
2022/07/15 07:34:08;;;;;;;3.88;1.60;;;;;;;;;;4875041;29;20057;-69
2022/07/15 07:36:39;;;;;;;4.40;1.63;;;;;;;;;;4875549;29;20061;-71
2022/07/15 07:39:10;;;;;;;5.32;1.60;;;;;;;;;;4875130;29;20560;-70
2022/07/15 07:41:41;;;;;;;3.17;1.50;;;;;;;;;;4875409;29;20609;-70
2022/07/15 07:44:11;;;;;;;6.68;1.88;;;;;;;;;;4865779;29;20411;-70
2022/07/15 07:46:42;;;;;;;6.45;1.70;;;;;;;;;;4835071;29;20065;-70
2022/07/15 07:49:12;;;;;;;8.70;1.90;;;;;;;;;;4856483;29;20155;-68
2022/07/15 07:52:04;;;;;;;9.45;1.90;;;;;;;;;;4826391;29;20077;-68
2022/07/15 07:54:35;;;;;;;7.47;1.88;;;;;;;;;;4841256;29;20060;-69
2022/07/15 07:57:05;;;;;;;4.03;1.30;;;;;;;;;;4875073;29;20057;-70
2022/07/15 07:59:36;;;;;;;3.63;1.45;;;;;;;;;;4859421;29;20403;-70
2022/07/15 08:02:06;;;;;;;5.95;1.30;;;;;;;;;;4875256;29;20053;-69
2022/07/15 08:04:38;;;;;;;4.15;1.70;;;;;;;;;;4875302;29;20065;-69
2022/07/15 08:07:08;;;;;;;5.20;1.70;;;;;;;;;;4899734;29;20063;-68
2022/07/15 08:09:39;;;;;;;5.55;1.75;;;;;;;;;;4881115;29;20068;-70
2022/07/15 08:12:09;;;;;;;7.72;2.03;;;;;;;;;;4888204;29;20057;-70
2022/07/15 08:14:39;;;;;;;5.95;1.55;;;;;;;;;;4839908;29;20057;-69
2022/07/15 08:17:09;;;;;;;4.72;2.10;;;;;;;;;;4823376;29;20061;-70
2022/07/15 08:19:40;;;;;;;4.40;1.50;;;;;;;;;;4793154;29;20062;-70
2022/07/15 08:22:11;;;;;;;4.10;1.38;;;;;;;;;;4823534;29;20059;-70
2022/07/15 08:24:43;;;;;;;;;;;;;;;;;;4823488;29;20518;-70
2022/07/15 08:27:13;;;;;;;4.53;1.60;;;;;;;;;;4823453;29;19925;-70
2022/07/15 08:29:44;;;;;;;4.18;2.03;;;;;;;;;;4823204;29;20397;-69
2022/07/15 08:32:14;;;;;;;5.22;2.00;;;;;;;;;;4823351;29;20073;-70
2022/07/15 08:34:47;;;;;;;4.80;1.98;;;;;;;;;;4832664;29;20412;-70
2022/07/15 08:37:18;;;;;;;4.65;1.65;;;;;;;;;;4841540;29;20081;-70
2022/07/15 08:39:48;;;;;;;5.55;1.40;;;;;;;;;;4841519;29;20069;-69
2022/07/15 08:42:19;;;;;;;7.50;1.75;;;;;;;;;;4841551;29;20058;-70
2022/07/15 08:44:49;;;;;;;10.43;2.05;;;;;;;;;;4822927;29;20051;-69
2022/07/15 08:47:20;;;;;;;3.90;1.60;;;;;;;;;;4823170;29;20054;-69
2022/07/15 08:50:12;;;;;;;5.32;1.95;;;;;;;;;;4822900;29;20151;-71
2022/07/15 08:52:44;;;;;;;5.80;1.52;;;;;;;;;;4847453;29;20079;-70
2022/07/15 08:55:16;;;;;;;4.45;1.80;;;;;;;;;;4823571;29;20534;-70
2022/07/15 08:57:52;;;;;;;4.68;1.60;;;;;;;;;;4841507;29;20061;-71
2022/07/15 09:00:30;;;;;;;7.30;1.65;;;;;;;;;;4804188;29;20055;-70
2022/07/15 09:03:06;;;;;;;4.93;1.67;;;;;;;;;;4789740;29;20439;-70
2022/07/15 09:05:37;;;;;;;4.20;1.70;;;;;;;;;;4804734;29;20055;-70
2022/07/15 09:08:11;;;;;;;4.95;1.92;;;;;;;;;;4789556;29;20074;-70
2022/07/15 09:10:49;;;;;;;6.72;2.22;;;;;;;;;;4804304;29;20059;-70
2022/07/15 09:13:33;;;;;;;5.80;2.00;;;;;;;;;;4801965;29;20051;-69
2022/07/15 09:16:21;;;;;;;5.25;1.73;;;;;;;;;;4804881;29;20070;-71
2022/07/15 09:18:52;;;;;;;5.28;1.95;;;;;;;;;;4803991;29;20054;-71
2022/07/15 09:21:28;;;;;;;6.43;1.95;;;;;;;;;;4805215;29;20046;-71
2022/07/15 09:24:19;;;;;;;5.30;1.90;;;;;;;;;;4822064;29;20050;-70
2022/07/15 09:26:50;;;;;;;9.55;1.90;;;;;;;;;;4807294;29;20042;-69
2022/07/15 09:38:07;;;;;;;6.80;1.65;;;;;;;;;;4852513;29;20068;-70
2022/07/15 09:40:49;;;;;;;2.92;1.45;;;;;;;;;;4862552;29;20057;-69
2022/07/15 09:43:19;;;;;;;6.47;1.92;;;;;;;;;;4840127;29;20482;-69
2022/07/15 09:45:58;;;;;;;3.30;1.42;;;;;;;;;;4810030;29;20061;-70
2022/07/15 09:48:29;;;;;;;6.60;2.03;;;;;;;;;;4840351;29;20069;-71
2022/07/15 09:51:00;;;;;;;9.13;2.33;;;;;;;;;;4858839;29;20518;-72
2022/07/15 09:53:32;;;;;;;9.75;3.13;;;;;;;;;;4846343;29;20068;-71
2022/07/15 09:56:04;;;;;;;4.45;2.20;;;;;;;;;;4876947;29;20068;-71
2022/07/15 09:58:39;;;;;;;7.45;2.63;;;;;;;;;;4877036;29;20057;-71
2022/07/15 10:01:12;;;;;;;5.03;2.35;;;;;;;;;;4877455;29;20053;-71
2022/07/15 10:03:43;;;;;;;6.32;2.38;;;;;;;;;;4858669;29;20124;-71
2022/07/15 10:06:14;;;;;;;8.05;2.35;;;;;;;;;;4839874;29;20054;-71
2022/07/15 10:08:46;;;;;;;;;;;;;;;;;;4840535;29;20411;-71
2022/07/15 10:11:16;;;;;;;9.05;2.10;;;;;;;;;;4839769;29;19947;-71
2022/07/15 10:14:03;;;;;;;7.53;1.83;;;;;;;;;;4839632;29;20066;-71
2022/07/15 10:16:54;;;;;;;8.40;2.20;;;;;;;;;;4839867;29;20170;-70
2022/07/15 10:19:40;;;;;;;8.05;2.05;;;;;;;;;;4839747;29;20495;-70
2022/07/15 10:22:26;;;;;;;8.57;2.75;;;;;;;;;;4821660;29;20070;-69
2022/07/15 10:24:57;;;;;;;5.15;2.00;;;;;;;;;;4806216;29;20424;-70
2022/07/15 10:27:54;;;;;;;5.70;2.20;;;;;;;;;;4820914;29;20518;-69
2022/07/15 10:30:24;;;;;;;;;;;;;;;;;;4785065;30;20095;-70
2022/07/15 10:33:04;;;;;;;7.80;2.60;;;;;;;;;;4755391;30;20062;-69
2022/07/15 10:35:43;;;;;;;9.40;2.30;;;;;;;;;;4793939;29;20520;-70
2022/07/15 10:38:25;;;;;;;5.85;2.40;;;;;;;;;;4820823;29;20054;-73
2022/07/15 10:41:14;;;;;;;5.90;3.03;;;;;;;;;;4821081;29;20073;-72
2022/07/15 10:43:49;;;;;;;5.55;2.78;;;;;;;;;;4829427;29;20098;-72
2022/07/15 10:46:27;;;;;;;8.13;2.55;;;;;;;;;;4839408;29;20065;-71
2022/07/15 10:49:00;;;;;;;5.90;2.33;;;;;;;;;;4839140;29;20069;-71
2022/07/15 10:51:36;;;;;;;9.43;2.50;;;;;;;;;;4793622;29;20053;-71
2022/07/15 10:54:32;;;;;;;6.70;2.47;;;;;;;;;;4838947;29;20079;-70
2022/07/15 10:57:03;;;;;;;7.10;2.83;;;;;;;;;;4839121;29;20058;-70
2022/07/15 10:59:51;;;;;;;9.63;4.07;;;;;;;;;;4839003;29;20594;-70
2022/07/15 11:02:26;;;;;;;11.10;4.95;;;;;;;;;;4839229;29;20066;-70
2022/07/15 11:05:20;;;;;;;43.40;14.40;;;;;;;;;;4820682;29;20064;-70
2022/07/15 11:07:51;;;;;;;39.38;15.80;;;;;;;;;;4884292;29;20068;-71
2022/07/15 11:10:22;;;;;;;19.60;6.43;;;;;;;;;;4896849;29;20052;-71
2022/07/15 11:12:53;;;;;;;14.10;6.20;;;;;;;;;;4879976;29;20056;-71
2022/07/15 11:15:23;;;;;;;13.85;5.97;;;;;;;;;;4897091;29;20045;-71
2022/07/15 11:17:56;;;;;;;11.77;4.70;;;;;;;;;;4875531;29;20057;-71
2022/07/15 11:20:38;;;;;;;9.88;4.53;;;;;;;;;;4875841;29;20057;-71
2022/07/15 11:23:09;;;;;;;7.50;3.78;;;;;;;;;;4845026;29;20060;-71
2022/07/15 11:25:44;;;;;;;7.25;3.10;;;;;;;;;;4875606;29;20060;-71
2022/07/15 11:28:17;;;;;;;7.80;3.67;;;;;;;;;;4875650;29;20418;-70
2022/07/15 11:30:53;;;;;;;7.45;3.15;;;;;;;;;;4875824;29;20049;-71
2022/07/15 11:33:30;;;;;;;5.97;3.50;;;;;;;;;;4860876;29;20049;-71
2022/07/15 11:36:03;;;;;;;10.32;3.60;;;;;;;;;;4875683;29;20048;-72
2022/07/15 11:38:39;;;;;;;17.65;7.97;;;;;;;;;;4875212;29;20497;-71
2022/07/15 11:46:59;;;;;;;38.03;23.13;;;;;;;;;;4875135;29;20048;-71
2022/07/15 11:49:34;;;;;;;;;;;;;;;;;;4867438;29;20057;-72
2022/07/15 11:52:06;;;;;;;37.40;19.73;;;;;;;;;;4895207;29;19978;-71
2022/07/15 11:54:39;;;;;;;35.47;20.17;;;;;;;;;;4896286;29;20051;-72
2022/07/15 11:57:13;;;;;;;31.70;18.33;;;;;;;;;;4847869;29;20057;-70
2022/07/15 11:59:55;;;;;;;33.97;19.40;;;;;;;;;;4893811;29;20060;-70
2022/07/15 12:02:28;;;;;;;33.83;18.52;;;;;;;;;;4893867;29;20097;-71
2022/07/15 12:05:07;;;;;;;27.38;16.73;;;;;;;;;;4878576;29;20068;-70
2022/07/15 12:07:48;;;;;;;25.30;14.25;;;;;;;;;;4894205;29;20048;-71
2022/07/15 12:10:19;;;;;;;20.88;11.75;;;;;;;;;;4893971;29;20056;-72
2022/07/15 12:13:01;;;;;;;21.30;11.30;;;;;;;;;;4878968;29;20048;-70
2022/07/15 12:15:34;;;;;;;17.48;9.65;;;;;;;;;;4847347;29;20573;-71
2022/07/15 12:18:05;;;;;;;12.40;5.90;;;;;;;;;;4893812;29;20064;-72
2022/07/15 12:20:36;;;;;;;8.25;3.92;;;;;;;;;;4893702;29;20052;-70
2022/07/15 12:23:11;;;;;;;6.03;2.60;;;;;;;;;;4894099;29;20053;-69
2022/07/15 12:25:42;;;;;;;9.50;2.28;;;;;;;;;;4878346;29;20516;-72
2022/07/15 12:28:29;;;;;;;8.18;1.95;;;;;;;;;;4893831;29;20053;-69
2022/07/15 12:31:00;;;;;;;3.42;1.30;;;;;;;;;;4856191;29;20057;-69
2022/07/15 12:33:35;;;;;;;3.85;1.30;;;;;;;;;;4856521;29;20061;-68
2022/07/15 12:36:18;;;;;;;3.40;1.23;;;;;;;;;;4856551;29;20065;-69
2022/07/15 12:39:10;;;;;;;3.55;1.00;;;;;;;;;;4856484;29;20041;-69
2022/07/15 12:42:04;;;;;;;4.07;1.23;;;;;;;;;;4856731;29;20076;-69
2022/07/15 12:44:34;;;;;;;5.38;1.33;;;;;;;;;;4856490;29;20053;-69
2022/07/15 12:47:06;;;;;;;13.80;1.27;;;;;;;;;;4841348;29;20077;-68
2022/07/15 12:49:45;;;;;;;5.63;1.30;;;;;;;;;;4837972;29;20061;-69
2022/07/15 12:52:18;;;;;;;;;;;;;;;;;;4808716;29;20065;-69
2022/07/15 12:54:50;;;;;;;3.85;1.35;;;;;;;;;;4838035;29;19931;-70
2022/07/15 12:57:32;;;;;;;7.82;1.40;;;;;;;;;;4837850;29;20054;-69
2022/07/15 13:00:25;;;;;;;3.80;0.95;;;;;;;;;;4823969;29;20080;-69
2022/07/15 13:03:07;;;;;;;5.18;0.93;;;;;;;;;;4751061;30;20558;-69
2022/07/15 13:05:43;;;;;;;1.70;0.80;;;;;;;;;;4750969;30;20064;-69
2022/07/15 13:08:18;;;;;;;3.40;0.88;;;;;;;;;;4750482;30;20067;-70
2022/07/15 13:10:52;;;;;;;2.38;0.90;;;;;;;;;;4721369;30;20079;-69
2022/07/15 13:13:25;;;;;;;6.78;1.15;;;;;;;;;;4750804;30;20060;-70
2022/07/15 13:15:58;;;;;;;2.55;0.80;;;;;;;;;;4750678;30;20561;-70
2022/07/15 13:18:30;;;;;;;8.25;1.02;;;;;;;;;;4750416;30;20506;-69
2022/07/15 13:21:02;;;;;;;8.18;1.45;;;;;;;;;;4750362;30;20068;-69
2022/07/15 13:23:32;;;;;;;3.75;1.00;;;;;;;;;;4750791;30;20079;-69
2022/07/15 13:26:03;;;;;;;2.60;0.93;;;;;;;;;;4750555;30;20064;-69
2022/07/15 13:28:33;;;;;;;3.25;1.05;;;;;;;;;;4751017;30;20552;-69
2022/07/15 13:31:04;;;;;;;9.27;1.50;;;;;;;;;;4750148;30;20072;-69
2022/07/15 13:33:34;;;;;;;4.35;1.00;;;;;;;;;;4750738;30;20414;-68
2022/07/15 13:36:13;;;;;;;5.85;0.90;;;;;;;;;;4750717;30;20069;-69
2022/07/15 13:38:44;;;;;;;2.72;1.27;;;;;;;;;;4750629;30;20442;-69
2022/07/15 13:41:15;;;;;;;4.07;0.90;;;;;;;;;;4823231;29;20066;-70
2022/07/15 13:43:46;;;;;;;2.70;0.90;;;;;;;;;;4840385;29;20061;-67
2022/07/15 13:46:16;;;;;;;3.03;1.00;;;;;;;;;;4874020;29;20055;-72
2022/07/15 13:48:47;;;;;;;3.35;0.73;;;;;;;;;;4828199;29;20101;-70
2022/07/15 13:51:24;;;;;;;3.55;1.30;;;;;;;;;;4813204;29;20067;-71
2022/07/15 13:53:56;;;;;;;4.90;1.30;;;;;;;;;;4884124;29;20422;-68
2022/07/15 13:56:27;;;;;;;4.82;1.20;;;;;;;;;;4898179;29;20497;-69
2022/07/15 13:58:59;;;;;;;3.17;1.20;;;;;;;;;;4881162;29;20068;-68
2022/07/15 14:01:33;;;;;;;4.43;1.17;;;;;;;;;;4898119;29;20045;-68
2022/07/15 14:04:03;;;;;;;3.40;1.10;;;;;;;;;;4898127;29;20041;-68
2022/07/15 14:06:34;;;;;;;4.57;1.10;;;;;;;;;;4896725;29;20049;-68
2022/07/15 14:09:04;;;;;;;2.45;0.88;;;;;;;;;;4898239;29;20052;-68
2022/07/15 14:11:35;;;;;;;2.95;0.93;;;;;;;;;;4895603;29;20057;-68
2022/07/15 14:14:06;;;;;;;4.35;0.98;;;;;;;;;;4865153;29;20061;-68
2022/07/15 14:16:36;;;;;;;4.57;1.25;;;;;;;;;;4897775;29;20044;-68
2022/07/15 14:19:07;;;;;;;3.33;1.35;;;;;;;;;;4876302;29;20092;-69
2022/07/15 14:21:38;;;;;;;7.65;1.05;;;;;;;;;;4876525;29;21207;-68
2022/07/15 14:24:15;;;;;;;6.45;1.15;;;;;;;;;;4845862;29;20057;-68
2022/07/15 14:26:46;;;;;;;3.90;1.02;;;;;;;;;;4845862;29;20057;-68
2022/07/15 14:29:16;;;;;;;2.50;0.70;;;;;;;;;;4857862;29;20132;-68
2022/07/15 14:31:47;;;;;;;4.05;1.13;;;;;;;;;;4782571;29;20053;-68
2022/07/15 14:34:28;;;;;;;2.45;0.90;;;;;;;;;;4857930;29;20080;-68
2022/07/15 14:36:58;;;;;;;9.10;1.35;;;;;;;;;;4812275;29;20065;-71
2022/07/15 14:39:49;;;;;;;3.30;1.08;;;;;;;;;;4857743;29;20071;-69
2022/07/15 14:42:19;;;;;;;2.72;1.13;;;;;;;;;;4858197;29;20061;-68
2022/07/15 14:44:50;;;;;;;2.15;1.00;;;;;;;;;;4857853;29;20441;-69
2022/07/15 14:47:20;;;;;;;4.25;0.90;;;;;;;;;;4812240;29;20054;-69
2022/07/15 14:49:51;;;;;;;5.40;1.10;;;;;;;;;;4823762;29;20447;-69
2022/07/15 14:52:22;;;;;;;2.50;1.00;;;;;;;;;;4839238;29;20519;-69
2022/07/15 14:54:53;;;;;;;5.47;1.30;;;;;;;;;;4839225;29;20068;-70
2022/07/15 14:57:23;;;;;;;4.20;1.02;;;;;;;;;;4853086;29;20073;-70
2022/07/15 14:59:53;;;;;;;1.88;1.05;;;;;;;;;;4839450;29;20565;-69
2022/07/15 15:02:24;;;;;;;3.63;0.90;;;;;;;;;;4793847;29;20072;-68
2022/07/15 15:04:55;;;;;;;4.15;0.90;;;;;;;;;;4838899;29;20057;-69
2022/07/15 15:07:27;;;;;;;4.63;1.20;;;;;;;;;;4779500;29;20067;-68
2022/07/15 15:09:58;;;;;;;5.88;1.10;;;;;;;;;;4740125;29;20082;-72
2022/07/15 15:12:29;;;;;;;3.42;1.13;;;;;;;;;;4784178;29;20063;-69
2022/07/15 15:14:59;;;;;;;4.80;1.30;;;;;;;;;;4755524;30;20063;-70
2022/07/15 15:17:29;;;;;;;4.32;1.05;;;;;;;;;;4766198;30;20067;-69
2022/07/15 15:20:10;;;;;;;4.97;1.50;;;;;;;;;;4753216;30;20060;-70
2022/07/15 15:22:41;;;;;;;5.82;1.13;;;;;;;;;;4722448;30;20096;-69
2022/07/15 15:25:12;;;;;;;3.42;1.08;;;;;;;;;;4766430;30;20060;-69
2022/07/15 15:27:42;;;;;;;4.20;1.02;;;;;;;;;;4776592;29;20051;-69
2022/07/15 15:30:13;;;;;;;3.90;1.17;;;;;;;;;;4769133;29;20060;-69
2022/07/15 15:32:53;;;;;;;2.85;1.05;;;;;;;;;;4783895;29;20561;-69
2022/07/15 15:35:24;;;;;;;2.45;0.95;;;;;;;;;;4784153;29;20064;-69
2022/07/15 15:37:54;;;;;;;2.47;0.98;;;;;;;;;;4796378;29;20165;-69
2022/07/15 15:40:25;;;;;;;3.92;1.38;;;;;;;;;;4783679;29;20180;-68
2022/07/15 15:42:55;;;;;;;6.25;1.60;;;;;;;;;;4754485;30;20059;-67
2022/07/15 15:45:26;;;;;;;5.40;1.00;;;;;;;;;;4766488;29;20063;-68